sensor_id;sensor_type;location;lat;lon;timestamp;pressure;altitude;pressure_sealevel;temperature;humidity
61674;BME280;47573;43.832;5.974;2022-11-20T00:00:23;94477.91;;;22.65;68.23
61674;BME280;47573;43.832;5.974;2022-11-20T00:05:25;94490.44;;;22.66;68.58
61674;BME280;47573;43.832;5.974;2022-11-20T00:10:25;94475.75;;;22.67;67.92
61674;BME280;47573;43.832;5.974;2022-11-20T00:15:26;94473.31;;;22.65;68.33
61674;BME280;47573;43.832;5.974;2022-11-20T00:20:28;94480.09;;;22.63;68.21
61674;BME280;47573;43.832;5.974;2022-11-20T00:25:28;94475.72;;;22.62;68.63
61674;BME280;47573;43.832;5.974;2022-11-20T00:30:29;94477.63;;;22.61;68.37
61674;BME280;47573;43.832;5.974;2022-11-20T00:35:31;94482.75;;;22.58;68.63
61674;BME280;47573;43.832;5.974;2022-11-20T00:40:31;94488.19;;;22.58;68.63
61674;BME280;47573;43.832;5.974;2022-11-20T00:45:32;94478.97;;;22.59;68.80
61674;BME280;47573;43.832;5.974;2022-11-20T00:50:33;94485.19;;;22.54;68.83
61674;BME280;47573;43.832;5.974;2022-11-20T00:55:34;94489.22;;;22.52;68.95
61674;BME280;47573;43.832;5.974;2022-11-20T01:00:34;94489.22;;;22.52;68.59
61674;BME280;47573;43.832;5.974;2022-11-20T01:05:36;94481.31;;;22.50;68.70
61674;BME280;47573;43.832;5.974;2022-11-20T01:10:37;94488.13;;;22.48;68.67
61674;BME280;47573;43.832;5.974;2022-11-20T01:15:37;94491.69;;;22.53;68.35
61674;BME280;47573;43.832;5.974;2022-11-20T01:20:39;94495.59;;;22.35;68.69
61674;BME280;47573;43.832;5.974;2022-11-20T01:25:39;94492.22;;;22.23;68.71
61674;BME280;47573;43.832;5.974;2022-11-20T01:30:40;94495.69;;;22.14;68.88
61674;BME280;47573;43.832;5.974;2022-11-20T01:35:42;94500.03;;;22.15;68.67
61674;BME280;47573;43.832;5.974;2022-11-20T01:40:42;94509.00;;;22.10;69.01
61674;BME280;47573;43.832;5.974;2022-11-20T01:46:03;94520.84;;;22.04;69.00
61674;BME280;47573;43.832;5.974;2022-11-20T01:51:07;94511.63;;;22.05;68.59
61674;BME280;47573;43.832;5.974;2022-11-20T01:56:12;94521.09;;;21.98;68.43
61674;BME280;47573;43.832;5.974;2022-11-20T02:01:14;94522.09;;;21.92;68.38
61674;BME280;47573;43.832;5.974;2022-11-20T02:06:19;94509.44;;;21.81;68.42
61674;BME280;47573;43.832;5.974;2022-11-20T02:11:23;94512.91;;;21.76;68.00
61674;BME280;47573;43.832;5.974;2022-11-20T02:16:25;94510.13;;;21.71;68.48
61674;BME280;47573;43.832;5.974;2022-11-20T02:21:35;94509.00;;;21.67;68.18
61674;BME280;47573;43.832;5.974;2022-11-20T02:26:48;94520.88;;;21.61;68.01
61674;BME280;47573;43.832;5.974;2022-11-20T02:31:51;94530.63;;;21.57;68.21
61674;BME280;47573;43.832;5.974;2022-11-20T02:36:53;94533.28;;;21.52;68.06
61674;BME280;47573;43.832;5.974;2022-11-20T02:41:55;94527.22;;;21.45;68.21
61674;BME280;47573;43.832;5.974;2022-11-20T02:46:57;94526.06;;;21.41;68.14
61674;BME280;47573;43.832;5.974;2022-11-20T02:51:57;94543.69;;;21.38;68.10
61674;BME280;47573;43.832;5.974;2022-11-20T02:56:59;94537.94;;;21.35;68.22
61674;BME280;47573;43.832;5.974;2022-11-20T03:02:00;94531.38;;;21.31;68.42
61674;BME280;47573;43.832;5.974;2022-11-20T03:07:00;94530.25;;;21.27;68.25
61674;BME280;47573;43.832;5.974;2022-11-20T03:12:03;94526.88;;;21.20;68.37
61674;BME280;47573;43.832;5.974;2022-11-20T03:17:04;94532.81;;;21.17;68.57
61674;BME280;47573;43.832;5.974;2022-11-20T03:22:05;94532.25;;;21.15;68.51
61674;BME280;47573;43.832;5.974;2022-11-20T03:27:07;94539.47;;;21.09;68.35
61674;BME280;47573;43.832;5.974;2022-11-20T03:32:07;94533.75;;;21.06;68.56
61674;BME280;47573;43.832;5.974;2022-11-20T03:37:08;94536.13;;;21.02;68.64
61674;BME280;47573;43.832;5.974;2022-11-20T03:42:10;94535.19;;;20.97;68.44
61674;BME280;47573;43.832;5.974;2022-11-20T03:47:11;94538.16;;;20.95;68.40
61674;BME280;47573;43.832;5.974;2022-11-20T03:52:12;94542.13;;;20.88;68.80
61674;BME280;47573;43.832;5.974;2022-11-20T03:57:14;94538.00;;;20.85;68.60
61674;BME280;47573;43.832;5.974;2022-11-20T04:02:14;94546.41;;;20.83;68.46
61674;BME280;47573;43.832;5.974;2022-11-20T04:07:15;94543.13;;;20.81;68.23
61674;BME280;47573;43.832;5.974;2022-11-20T04:12:17;94540.31;;;20.76;68.31
61674;BME280;47573;43.832;5.974;2022-11-20T04:17:17;94554.38;;;20.73;68.34
61674;BME280;47573;43.832;5.974;2022-11-20T04:22:18;94559.47;;;20.70;68.24
61674;BME280;47573;43.832;5.974;2022-11-20T04:27:20;94567.28;;;20.66;68.28
61674;BME280;47573;43.832;5.974;2022-11-20T04:32:20;94561.53;;;20.63;68.28
61674;BME280;47573;43.832;5.974;2022-11-20T04:37:21;94560.97;;;20.61;68.31
61674;BME280;47573;43.832;5.974;2022-11-20T04:42:22;94569.91;;;20.61;68.31
61674;BME280;47573;43.832;5.974;2022-11-20T04:47:23;94577.47;;;20.59;68.19
61674;BME280;47573;43.832;5.974;2022-11-20T04:52:23;94589.63;;;20.57;68.18
61674;BME280;47573;43.832;5.974;2022-11-20T04:57:25;94598.00;;;20.55;68.13
61674;BME280;47573;43.832;5.974;2022-11-20T05:02:26;94594.97;;;20.52;68.18
61674;BME280;47573;43.832;5.974;2022-11-20T05:07:26;94611.50;;;20.50;68.23
61674;BME280;47573;43.832;5.974;2022-11-20T05:12:28;94617.41;;;20.47;68.23
61674;BME280;47573;43.832;5.974;2022-11-20T05:17:29;94626.00;;;20.44;68.12
61674;BME280;47573;43.832;5.974;2022-11-20T05:22:29;94623.78;;;20.41;68.27
61674;BME280;47573;43.832;5.974;2022-11-20T05:27:31;94630.38;;;20.45;68.07
61674;BME280;47573;43.832;5.974;2022-11-20T05:32:32;94626.63;;;20.46;67.90
61674;BME280;47573;43.832;5.974;2022-11-20T05:37:32;94638.41;;;20.40;68.31
61674;BME280;47573;43.832;5.974;2022-11-20T05:42:34;94633.16;;;20.34;68.40
61674;BME280;47573;43.832;5.974;2022-11-20T05:47:34;94649.06;;;20.30;68.71
61674;BME280;47573;43.832;5.974;2022-11-20T05:52:35;94647.44;;;20.29;68.64
61674;BME280;47573;43.832;5.974;2022-11-20T05:57:37;94644.63;;;20.24;68.55
61674;BME280;47573;43.832;5.974;2022-11-20T06:02:37;94642.16;;;20.23;68.59
61674;BME280;47573;43.832;5.974;2022-11-20T06:07:38;94646.75;;;20.22;68.55
61674;BME280;47573;43.832;5.974;2022-11-20T06:12:39;94649.72;;;20.21;68.42
61674;BME280;47573;43.832;5.974;2022-11-20T06:17:40;94645.56;;;20.18;68.48
61674;BME280;47573;43.832;5.974;2022-11-20T06:22:40;94646.06;;;20.15;68.58
61674;BME280;47573;43.832;5.974;2022-11-20T06:27:42;94644.38;;;20.14;68.31
61674;BME280;47573;43.832;5.974;2022-11-20T06:32:43;94643.81;;;20.12;68.30
61674;BME280;47573;43.832;5.974;2022-11-20T06:37:43;94654.53;;;20.07;68.45
61674;BME280;47573;43.832;5.974;2022-11-20T06:42:45;94641.56;;;20.09;68.19
61674;BME280;47573;43.832;5.974;2022-11-20T06:47:46;94646.66;;;20.05;68.25
61674;BME280;47573;43.832;5.974;2022-11-20T06:52:46;94651.34;;;20.10;68.14
61674;BME280;47573;43.832;5.974;2022-11-20T06:57:48;94656.41;;;20.18;67.61
61674;BME280;47573;43.832;5.974;2022-11-20T07:02:48;94670.88;;;20.24;67.28
61674;BME280;47573;43.832;5.974;2022-11-20T07:07:49;94677.13;;;20.24;67.03
61674;BME280;47573;43.832;5.974;2022-11-20T07:12:52;94687.97;;;20.24;67.15
61674;BME280;47573;43.832;5.974;2022-11-20T07:17:52;94689.97;;;20.29;66.57
61674;BME280;47573;43.832;5.974;2022-11-20T07:22:53;94697.84;;;20.30;66.41
61674;BME280;47573;43.832;5.974;2022-11-20T07:27:58;94692.44;;;20.30;66.23
61674;BME280;47573;43.832;5.974;2022-11-20T07:32:58;94703.28;;;20.30;66.26
61674;BME280;47573;43.832;5.974;2022-11-20T07:37:59;94708.38;;;20.27;66.30
61674;BME280;47573;43.832;5.974;2022-11-20T07:43:01;94722.75;;;20.27;66.06
61674;BME280;47573;43.832;5.974;2022-11-20T07:48:01;94731.34;;;20.24;66.11
61674;BME280;47573;43.832;5.974;2022-11-20T07:53:03;94735.47;;;20.27;65.97
61674;BME280;47573;43.832;5.974;2022-11-20T07:58:05;94734.53;;;20.33;65.77
61674;BME280;47573;43.832;5.974;2022-11-20T08:03:06;94729.94;;;20.33;65.59
61674;BME280;47573;43.832;5.974;2022-11-20T08:08:07;94737.09;;;20.39;65.10
61674;BME280;47573;43.832;5.974;2022-11-20T08:13:09;94750.66;;;20.39;65.28
61674;BME280;47573;43.832;5.974;2022-11-20T08:18:11;94756.16;;;20.44;64.90
61674;BME280;47573;43.832;5.974;2022-11-20T08:23:11;94756.78;;;20.46;64.80
61674;BME280;47573;43.832;5.974;2022-11-20T08:28:13;94765.00;;;20.51;64.80
61674;BME280;47573;43.832;5.974;2022-11-20T08:33:14;94777.50;;;20.52;64.93
61674;BME280;47573;43.832;5.974;2022-11-20T08:38:14;94791.97;;;20.58;64.53
61674;BME280;47573;43.832;5.974;2022-11-20T08:43:16;94791.50;;;20.61;64.53
61674;BME280;47573;43.832;5.974;2022-11-20T08:48:16;94791.25;;;20.62;64.29
61674;BME280;47573;43.832;5.974;2022-11-20T08:53:17;94789.13;;;20.64;64.22
61674;BME280;47573;43.832;5.974;2022-11-20T08:58:19;94804.31;;;20.65;64.13
61674;BME280;47573;43.832;5.974;2022-11-20T09:03:19;94796.31;;;20.70;64.06
61674;BME280;47573;43.832;5.974;2022-11-20T09:08:20;94817.50;;;20.73;64.01
61674;BME280;47573;43.832;5.974;2022-11-20T09:13:22;94810.78;;;20.76;64.01
61674;BME280;47573;43.832;5.974;2022-11-20T09:18:24;94804.53;;;20.75;64.11
61674;BME280;47573;43.832;5.974;2022-11-20T09:23:25;94800.28;;;20.79;63.79
61674;BME280;47573;43.832;5.974;2022-11-20T09:28:27;94788.16;;;20.19;48.21
61674;BME280;47573;43.832;5.974;2022-11-20T09:33:27;94784.94;;;18.88;43.27
61674;BME280;47573;43.832;5.974;2022-11-20T09:38:28;94796.88;;;18.51;43.00
61674;BME280;47573;43.832;5.974;2022-11-20T09:43:39;94792.91;;;18.83;42.65
61674;BME280;47573;43.832;5.974;2022-11-20T09:48:55;94797.03;;;18.56;41.02
61674;BME280;47573;43.832;5.974;2022-11-20T09:54:12;94801.59;;;18.56;41.09
61674;BME280;47573;43.832;5.974;2022-11-20T09:59:37;94816.81;;;19.27;43.61
61674;BME280;47573;43.832;5.974;2022-11-20T10:04:42;94825.63;;;19.99;45.95
61674;BME280;47573;43.832;5.974;2022-11-20T10:09:50;94819.28;;;20.28;48.31
61674;BME280;47573;43.832;5.974;2022-11-20T10:15:03;94817.47;;;20.45;48.88
61674;BME280;47573;43.832;5.974;2022-11-20T10:20:16;94812.38;;;20.60;49.13
61674;BME280;47573;43.832;5.974;2022-11-20T10:25:18;94814.97;;;20.67;49.53
61674;BME280;47573;43.832;5.974;2022-11-20T10:30:21;94816.06;;;20.43;46.83
61674;BME280;47573;43.832;5.974;2022-11-20T10:35:26;94805.38;;;20.13;41.93
61674;BME280;47573;43.832;5.974;2022-11-20T10:40:34;94815.28;;;19.96;41.80
61674;BME280;47573;43.832;5.974;2022-11-20T10:45:47;94819.84;;;19.95;41.15
61674;BME280;47573;43.832;5.974;2022-11-20T10:51:03;94809.25;;;19.82;41.37
61674;BME280;47573;43.832;5.974;2022-11-20T10:56:12;94816.22;;;20.13;45.36
61674;BME280;47573;43.832;5.974;2022-11-20T11:01:20;94830.13;;;20.28;43.34
61674;BME280;47573;43.832;5.974;2022-11-20T11:06:24;94827.53;;;20.33;41.93
61674;BME280;47573;43.832;5.974;2022-11-20T11:11:30;94808.91;;;20.25;43.31
61674;BME280;47573;43.832;5.974;2022-11-20T11:16:32;94814.34;;;20.25;41.07
61674;BME280;47573;43.832;5.974;2022-11-20T11:21:33;94808.91;;;20.25;40.69
61674;BME280;47573;43.832;5.974;2022-11-20T11:26:33;94807.72;;;19.98;39.38
61674;BME280;47573;43.832;5.974;2022-11-20T11:31:35;94809.13;;;19.89;40.55
61674;BME280;47573;43.832;5.974;2022-11-20T11:36:35;94819.28;;;19.82;40.67
61674;BME280;47573;43.832;5.974;2022-11-20T11:41:36;94805.75;;;19.82;40.18
61674;BME280;47573;43.832;5.974;2022-11-20T11:46:40;94805.13;;;19.80;39.39
61674;BME280;47573;43.832;5.974;2022-11-20T11:51:59;94805.38;;;19.90;39.84
61674;BME280;47573;43.832;5.974;2022-11-20T11:57:05;94802.31;;;19.98;40.85
61674;BME280;47573;43.832;5.974;2022-11-20T12:02:19;94801.38;;;20.04;39.50
61674;BME280;47573;43.832;5.974;2022-11-20T12:07:30;94796.91;;;19.98;40.31
61674;BME280;47573;43.832;5.974;2022-11-20T12:12:36;94791.47;;;20.21;42.76
61674;BME280;47573;43.832;5.974;2022-11-20T12:17:41;94783.66;;;20.36;44.79
61674;BME280;47573;43.832;5.974;2022-11-20T12:22:49;94777.63;;;20.46;45.31
61674;BME280;47573;43.832;5.974;2022-11-20T12:28:19;94779.13;;;20.53;45.73
61674;BME280;47573;43.832;5.974;2022-11-20T12:33:43;94770.88;;;20.60;46.52
61674;BME280;47573;43.832;5.974;2022-11-20T12:39:02;94771.78;;;20.65;46.87
61674;BME280;47573;43.832;5.974;2022-11-20T12:44:16;94770.97;;;20.65;47.19
61674;BME280;47573;43.832;5.974;2022-11-20T12:49:30;94759.28;;;20.64;47.51
61674;BME280;47573;43.832;5.974;2022-11-20T12:54:46;94759.50;;;20.74;47.98
61674;BME280;47573;43.832;5.974;2022-11-20T13:00:06;94767.88;;;20.73;48.41
61674;BME280;47573;43.832;5.974;2022-11-20T13:05:31;94775.75;;;20.74;48.75
61674;BME280;47573;43.832;5.974;2022-11-20T13:10:41;94769.88;;;20.77;49.22
61674;BME280;47573;43.832;5.974;2022-11-20T13:15:49;94759.59;;;20.79;49.55
61674;BME280;47573;43.832;5.974;2022-11-20T13:20:52;94754.38;;;20.78;50.04
61674;BME280;47573;43.832;5.974;2022-11-20T13:26:03;94733.13;;;20.87;49.95
61674;BME280;47573;43.832;5.974;2022-11-20T13:31:04;94730.91;;;20.83;50.35
61674;BME280;47573;43.832;5.974;2022-11-20T13:36:20;94728.84;;;20.91;50.50
61674;BME280;47573;43.832;5.974;2022-11-20T13:41:26;94706.09;;;20.92;51.00
61674;BME280;47573;43.832;5.974;2022-11-20T13:46:36;94719.66;;;20.92;51.15
61674;BME280;47573;43.832;5.974;2022-11-20T13:51:42;94730.00;;;20.95;51.58
61674;BME280;47573;43.832;5.974;2022-11-20T13:56:53;94719.50;;;20.98;51.35
61674;BME280;47573;43.832;5.974;2022-11-20T14:01:55;94718.94;;;20.96;51.92
61674;BME280;47573;43.832;5.974;2022-11-20T14:06:57;94709.59;;;21.04;51.97
61674;BME280;47573;43.832;5.974;2022-11-20T14:11:58;94715.97;;;20.98;52.09
61674;BME280;47573;43.832;5.974;2022-11-20T14:17:06;94710.53;;;20.98;52.46
61674;BME280;47573;43.832;5.974;2022-11-20T14:22:10;94718.41;;;20.99;52.63
61674;BME280;47573;43.832;5.974;2022-11-20T14:27:17;94724.69;;;21.00;52.94
61674;BME280;47573;43.832;5.974;2022-11-20T14:32:21;94720.44;;;21.04;52.92
61674;BME280;47573;43.832;5.974;2022-11-20T14:37:26;94745.91;;;21.03;53.14
61674;BME280;47573;43.832;5.974;2022-11-20T14:42:29;94739.19;;;21.05;53.19
61674;BME280;47573;43.832;5.974;2022-11-20T14:47:30;94738.81;;;21.02;53.51
61674;BME280;47573;43.832;5.974;2022-11-20T14:52:32;94732.25;;;20.98;53.87
61674;BME280;47573;43.832;5.974;2022-11-20T14:57:35;94721.53;;;20.91;54.18
61674;BME280;47573;43.832;5.974;2022-11-20T15:02:38;94724.84;;;20.93;54.42
61674;BME280;47573;43.832;5.974;2022-11-20T15:07:42;94740.13;;;20.99;54.03
61674;BME280;47573;43.832;5.974;2022-11-20T15:12:47;94747.38;;;20.94;54.55
61674;BME280;47573;43.832;5.974;2022-11-20T15:17:48;94747.00;;;20.90;54.77
61674;BME280;47573;43.832;5.974;2022-11-20T15:22:50;94753.28;;;20.91;54.91
61674;BME280;47573;43.832;5.974;2022-11-20T15:27:54;94756.25;;;20.89;55.15
61674;BME280;47573;43.832;5.974;2022-11-20T15:32:55;94770.06;;;20.88;55.25
61674;BME280;47573;43.832;5.974;2022-11-20T15:37:57;94770.06;;;20.88;55.41
61674;BME280;47573;43.832;5.974;2022-11-20T15:42:58;94772.50;;;20.89;55.46
61674;BME280;47573;43.832;5.974;2022-11-20T15:47:58;94770.63;;;20.90;55.47
61674;BME280;47573;43.832;5.974;2022-11-20T15:53:00;94765.19;;;21.18;55.08
61674;BME280;47573;43.832;5.974;2022-11-20T15:58:01;94773.78;;;21.43;55.28
61674;BME280;47573;43.832;5.974;2022-11-20T16:03:01;94770.75;;;21.56;55.19
61674;BME280;47573;43.832;5.974;2022-11-20T16:08:04;94770.75;;;21.56;55.40
61674;BME280;47573;43.832;5.974;2022-11-20T16:13:05;94763.75;;;21.60;55.94
61674;BME280;47573;43.832;5.974;2022-11-20T16:18:13;94755.75;;;21.53;56.12
61674;BME280;47573;43.832;5.974;2022-11-20T16:23:15;94757.00;;;21.63;56.31
61674;BME280;47573;43.832;5.974;2022-11-20T16:28:16;94756.00;;;21.69;56.48
61674;BME280;47573;43.832;5.974;2022-11-20T16:33:17;94761.28;;;21.75;56.55
61674;BME280;47573;43.832;5.974;2022-11-20T16:38:19;94765.63;;;21.76;56.74
61674;BME280;47573;43.832;5.974;2022-11-20T16:43:19;94764.56;;;21.77;57.35
61674;BME280;47573;43.832;5.974;2022-11-20T16:48:20;94774.91;;;21.80;57.14
61674;BME280;47573;43.832;5.974;2022-11-20T16:53:22;94777.25;;;21.88;57.52
61674;BME280;47573;43.832;5.974;2022-11-20T16:58:22;94786.81;;;21.91;57.88
61674;BME280;47573;43.832;5.974;2022-11-20T17:03:22;94794.22;;;21.95;57.84
61674;BME280;47573;43.832;5.974;2022-11-20T17:08:27;94804.09;;;22.01;58.05
61674;BME280;47573;43.832;5.974;2022-11-20T17:13:29;94807.81;;;21.95;58.24
61674;BME280;47573;43.832;5.974;2022-11-20T17:18:30;94811.25;;;21.91;58.38
61674;BME280;47573;43.832;5.974;2022-11-20T17:23:32;94814.31;;;21.94;58.93
61674;BME280;47573;43.832;5.974;2022-11-20T17:28:33;94829.28;;;21.97;58.84
61674;BME280;47573;43.832;5.974;2022-11-20T17:33:35;94838.53;;;21.96;59.14
61674;BME280;47573;43.832;5.974;2022-11-20T17:38:37;94834.16;;;21.95;59.27
61674;BME280;47573;43.832;5.974;2022-11-20T17:43:38;94830.97;;;21.98;59.46
61674;BME280;47573;43.832;5.974;2022-11-20T17:48:39;94829.28;;;21.97;59.20
61674;BME280;47573;43.832;5.974;2022-11-20T17:53:43;94833.41;;;21.99;59.47
61674;BME280;47573;43.832;5.974;2022-11-20T17:58:44;94840.50;;;22.00;59.51
61674;BME280;47573;43.832;5.974;2022-11-20T18:03:44;94846.44;;;21.97;60.03
61674;BME280;47573;43.832;5.974;2022-11-20T18:08:47;94846.44;;;21.97;60.14
61674;BME280;47573;43.832;5.974;2022-11-20T18:13:49;94860.84;;;21.98;60.21
61674;BME280;47573;43.832;5.974;2022-11-20T18:18:53;94859.47;;;21.95;60.79
61674;BME280;47573;43.832;5.974;2022-11-20T18:23:55;94864.94;;;22.00;60.52
61674;BME280;47573;43.832;5.974;2022-11-20T18:28:56;94875.81;;;22.00;60.70
61674;BME280;47573;43.832;5.974;2022-11-20T18:33:56;94870.97;;;22.02;60.61
61674;BME280;47573;43.832;5.974;2022-11-20T18:38:59;94870.75;;;22.04;61.13
61674;BME280;47573;43.832;5.974;2022-11-20T18:44:00;94879.38;;;22.01;61.40
61674;BME280;47573;43.832;5.974;2022-11-20T18:49:01;94868.81;;;22.04;61.25
61674;BME280;47573;43.832;5.974;2022-11-20T18:54:04;94858.56;;;22.06;61.27
61674;BME280;47573;43.832;5.974;2022-11-20T18:59:06;94855.22;;;22.04;61.51
61674;BME280;47573;43.832;5.974;2022-11-20T19:04:08;94845.53;;;22.08;62.01
61674;BME280;47573;43.832;5.974;2022-11-20T19:09:11;94845.59;;;22.13;61.82
61674;BME280;47573;43.832;5.974;2022-11-20T19:14:12;94855.97;;;22.16;61.35
61674;BME280;47573;43.832;5.974;2022-11-20T19:19:13;94857.63;;;22.17;61.78
61674;BME280;47573;43.832;5.974;2022-11-20T19:24:15;94859.75;;;22.15;62.08
61674;BME280;47573;43.832;5.974;2022-11-20T19:29:16;94872.31;;;22.16;62.37
61674;BME280;47573;43.832;5.974;2022-11-20T19:34:16;94873.88;;;22.12;62.08
61674;BME280;47573;43.832;5.974;2022-11-20T19:39:18;94859.75;;;22.15;62.17
61674;BME280;47573;43.832;5.974;2022-11-20T19:44:19;94857.72;;;22.22;62.00
61674;BME280;47573;43.832;5.974;2022-11-20T19:49:19;94856.13;;;22.26;62.63
61674;BME280;47573;43.832;5.974;2022-11-20T19:54:21;94863.19;;;22.27;62.11
61674;BME280;47573;43.832;5.974;2022-11-20T19:59:22;94887.69;;;22.27;62.54
61674;BME280;47573;43.832;5.974;2022-11-20T20:04:22;94896.66;;;22.28;62.63
61674;BME280;47573;43.832;5.974;2022-11-20T20:09:24;94864.88;;;22.28;62.51
61674;BME280;47573;43.832;5.974;2022-11-20T20:14:25;94864.34;;;22.31;62.51
61674;BME280;47573;43.832;5.974;2022-11-20T20:19:25;94861.06;;;22.29;62.69
61674;BME280;47573;43.832;5.974;2022-11-20T20:24:27;94863.88;;;22.34;62.67
61674;BME280;47573;43.832;5.974;2022-11-20T20:29:28;94868.72;;;22.32;62.98
61674;BME280;47573;43.832;5.974;2022-11-20T20:34:29;94869.13;;;22.41;62.87
61674;BME280;47573;43.832;5.974;2022-11-20T20:39:30;94865.00;;;22.38;62.83
61674;BME280;47573;43.832;5.974;2022-11-20T20:44:31;94865.00;;;22.38;63.08
61674;BME280;47573;43.832;5.974;2022-11-20T20:49:32;94875.56;;;22.35;63.26
61674;BME280;47573;43.832;5.974;2022-11-20T20:54:34;94893.03;;;22.39;63.34
61674;BME280;47573;43.832;5.974;2022-11-20T20:59:34;94884.63;;;22.40;63.36
61674;BME280;47573;43.832;5.974;2022-11-20T21:04:35;94883.00;;;22.39;63.45
61674;BME280;47573;43.832;5.974;2022-11-20T21:09:37;94859.09;;;22.42;63.27
61674;BME280;47573;43.832;5.974;2022-11-20T21:14:37;94862.44;;;22.49;63.53
61674;BME280;47573;43.832;5.974;2022-11-20T21:19:38;94858.69;;;22.55;64.07
61674;BME280;47573;43.832;5.974;2022-11-20T21:24:40;94872.75;;;22.47;65.01
61674;BME280;47573;43.832;5.974;2022-11-20T21:29:40;94865.31;;;22.59;66.45
61674;BME280;47573;43.832;5.974;2022-11-20T21:34:41;94863.50;;;22.64;68.70
61674;BME280;47573;43.832;5.974;2022-11-20T21:39:42;94868.69;;;22.66;70.31
61674;BME280;47573;43.832;5.974;2022-11-20T21:44:44;94871.91;;;22.63;71.02
61674;BME280;47573;43.832;5.974;2022-11-20T21:49:45;94861.00;;;22.63;72.57
61674;BME280;47573;43.832;5.974;2022-11-20T21:54:47;94858.38;;;22.68;72.21
61674;BME280;47573;43.832;5.974;2022-11-20T21:59:47;94858.88;;;22.65;72.13
61674;BME280;47573;43.832;5.974;2022-11-20T22:04:47;94856.72;;;22.67;71.05
61674;BME280;47573;43.832;5.974;2022-11-20T22:09:49;94853.75;;;22.68;70.90
61674;BME280;47573;43.832;5.974;2022-11-20T22:14:50;94865.72;;;22.67;70.40
61674;BME280;47573;43.832;5.974;2022-11-20T22:19:50;94865.41;;;22.64;70.25
61674;BME280;47573;43.832;5.974;2022-11-20T22:24:52;94855.56;;;22.63;70.15
61674;BME280;47573;43.832;5.974;2022-11-20T22:29:53;94851.78;;;22.64;70.14
61674;BME280;47573;43.832;5.974;2022-11-20T22:34:53;94853.94;;;22.62;69.99
61674;BME280;47573;43.832;5.974;2022-11-20T22:39:56;94853.78;;;22.52;68.92
61674;BME280;47573;43.832;5.974;2022-11-20T22:44:56;94866.97;;;22.60;69.01
61674;BME280;47573;43.832;5.974;2022-11-20T22:49:57;94882.47;;;22.59;69.01
61674;BME280;47573;43.832;5.974;2022-11-20T22:54:59;94864.81;;;22.62;68.84
61674;BME280;47573;43.832;5.974;2022-11-20T22:59:59;94874.53;;;22.58;68.71
61674;BME280;47573;43.832;5.974;2022-11-20T23:05:00;94872.88;;;22.57;68.78
61674;BME280;47573;43.832;5.974;2022-11-20T23:10:02;94874.53;;;22.58;68.68
61674;BME280;47573;43.832;5.974;2022-11-20T23:15:03;94880.47;;;22.55;68.53
61674;BME280;47573;43.832;5.974;2022-11-20T23:20:04;94869.59;;;22.55;68.49
61674;BME280;47573;43.832;5.974;2022-11-20T23:25:08;94860.28;;;22.51;68.49
61674;BME280;47573;43.832;5.974;2022-11-20T23:30:10;94858.38;;;22.51;68.46
61674;BME280;47573;43.832;5.974;2022-11-20T23:35:11;94859.72;;;22.49;68.51
61674;BME280;47573;43.832;5.974;2022-11-20T23:40:13;94857.50;;;22.46;68.58
61674;BME280;47573;43.832;5.974;2022-11-20T23:45:14;94838.47;;;22.46;68.50
61674;BME280;47573;43.832;5.974;2022-11-20T23:50:14;94840.63;;;22.44;68.40
61674;BME280;47573;43.832;5.974;2022-11-20T23:55:16;94838.94;;;22.42;68.45
